createdAt,value
2022-11-03T00:03:16.530Z,4.05
2022-11-03T00:08:18.388Z,4.07
2022-11-03T00:13:20.186Z,3.70
2022-11-03T00:18:21.867Z,3.72
2022-11-03T00:23:25.741Z,2.70
2022-11-03T00:28:27.389Z,2.85
2022-11-03T00:33:32.861Z,3.28
2022-11-03T00:38:34.890Z,3.50
2022-11-03T00:43:36.861Z,3.97
2022-11-03T00:48:39.255Z,4.10
2022-11-03T00:53:46.208Z,4.75
2022-11-03T00:58:49.387Z,5.00
2022-11-03T01:04:13.868Z,4.78
2022-11-03T01:09:21.901Z,4.47
2022-11-03T01:14:25.679Z,4.30
2022-11-03T01:19:28.090Z,4.22
2022-11-03T01:24:29.897Z,2.33
2022-11-03T01:29:31.627Z,2.50
2022-11-03T01:34:33.421Z,3.22
2022-11-03T01:39:35.262Z,3.22
2022-11-03T01:44:42.005Z,3.55
2022-11-03T01:49:46.788Z,4.00
2022-11-03T01:54:53.874Z,3.55
2022-11-03T01:59:58.375Z,3.72
2022-11-03T02:05:02.756Z,4.00
2022-11-03T02:10:05.338Z,4.22
2022-11-03T02:15:13.696Z,5.03
2022-11-03T02:20:19.023Z,5.55
2022-11-03T02:25:50.767Z,4.50
2022-11-03T02:31:08.518Z,3.35
2022-11-03T02:36:17.933Z,3.35
2022-11-03T02:41:21.587Z,4.57
2022-11-03T02:46:26.179Z,4.75
2022-11-03T02:51:28.223Z,4.43
2022-11-03T02:56:31.756Z,4.55
2022-11-03T03:01:34.984Z,5.88
2022-11-03T03:06:42.891Z,6.20
2022-11-03T03:11:46.912Z,5.00
2022-11-03T03:17:13.278Z,5.43
2022-11-03T03:22:24.823Z,4.72
2022-11-03T03:27:29.613Z,4.90
2022-11-03T03:32:37.518Z,5.20
2022-11-03T03:37:45.260Z,5.35
2022-11-03T03:42:48.347Z,5.03
2022-11-03T03:47:53.655Z,4.22
2022-11-03T03:53:05.042Z,4.00
2022-11-03T03:58:10.595Z,3.63
2022-11-03T04:03:23.961Z,3.80
2022-11-03T04:08:25.830Z,4.47
2022-11-03T04:13:46.305Z,3.50
2022-11-03T04:19:06.584Z,2.60
2022-11-03T04:24:08.341Z,3.50
2022-11-03T04:29:11.801Z,5.43
2022-11-03T04:34:13.556Z,4.25
2022-11-03T04:39:20.196Z,5.25
2022-11-03T04:44:22.317Z,4.32
2022-11-03T04:49:24.156Z,4.97
2022-11-03T04:54:26.580Z,5.03
2022-11-03T04:59:28.782Z,5.47
2022-11-03T05:04:30.453Z,5.77
2022-11-03T05:09:32.262Z,7.22
2022-11-03T05:14:34.114Z,7.47
2022-11-03T05:19:42.016Z,12.27
2022-11-03T05:24:44.275Z,11.70
2022-11-03T05:29:46.108Z,5.63
2022-11-03T05:34:51.106Z,11.27
2022-11-03T05:39:55.609Z,10.05
2022-11-03T05:44:57.964Z,9.10
2022-11-03T05:50:14.612Z,13.15
2022-11-03T05:55:43.469Z,10.98
2022-11-03T06:00:48.617Z,12.13
2022-11-03T06:05:51.615Z,15.10
2022-11-03T06:10:55.333Z,13.10
2022-11-03T06:16:01.251Z,12.07
2022-11-03T06:21:12.637Z,11.63
2022-11-03T06:26:20.911Z,9.50
2022-11-03T06:31:31.609Z,9.95
2022-11-03T06:36:36.711Z,10.20
2022-11-03T06:41:38.416Z,9.60
2022-11-03T06:46:40.151Z,7.70
2022-11-03T06:51:41.781Z,7.68
2022-11-03T06:56:43.420Z,8.00
2022-11-03T07:01:48.487Z,7.68
2022-11-03T07:06:53.567Z,7.63
2022-11-03T07:11:59.544Z,7.25
2022-11-03T07:17:04.807Z,7.90
2022-11-03T07:22:16.624Z,5.53
2022-11-03T07:27:28.970Z,6.90
2022-11-03T07:32:33.272Z,6.45
2022-11-03T07:37:35.381Z,9.07
2022-11-03T07:42:37.049Z,7.60
2022-11-03T07:47:43.901Z,8.00
2022-11-03T07:52:45.960Z,11.30
2022-11-03T07:57:48.180Z,8.73
2022-11-03T08:02:58.294Z,7.60
2022-11-03T08:08:00.683Z,8.95
2022-11-03T08:13:02.361Z,9.00
2022-11-03T08:18:04.212Z,9.10
2022-11-03T08:23:24.740Z,9.17
2022-11-03T08:28:27.317Z,9.68
2022-11-03T08:38:31.326Z,9.47
2022-11-03T08:43:33.303Z,8.87
2022-11-03T08:48:35.170Z,6.63
2022-11-03T08:53:38.476Z,14.13
2022-11-03T08:58:40.733Z,13.05
2022-11-03T09:03:42.618Z,8.87
2022-11-03T09:14:06.338Z,9.48
2022-11-03T09:19:08.168Z,11.13
2022-11-03T09:24:10.477Z,12.50
2022-11-03T09:29:12.111Z,12.57
2022-11-03T09:34:13.969Z,15.20
2022-11-03T09:39:15.660Z,18.67
2022-11-03T09:44:17.667Z,22.48
2022-11-03T09:49:21.238Z,22.70
2022-11-03T09:54:23.104Z,23.08
2022-11-03T09:59:25.133Z,20.40
2022-11-03T10:04:28.407Z,19.75
2022-11-03T10:14:31.723Z,19.77
2022-11-03T10:19:33.572Z,20.77
2022-11-03T10:24:35.849Z,19.40
2022-11-03T10:29:39.927Z,19.40
2022-11-03T10:34:42.995Z,17.88
2022-11-03T10:39:45.785Z,16.90
2022-11-03T10:44:48.329Z,17.85
2022-11-03T10:49:50.119Z,15.43
2022-11-03T10:54:54.608Z,16.73
2022-11-03T10:59:56.479Z,14.93
2022-11-03T11:05:01.340Z,14.03
2022-11-03T11:10:07.865Z,14.65
2022-11-03T11:15:36.540Z,12.93
2022-11-03T11:20:39.072Z,15.60
2022-11-03T11:26:05.857Z,14.80
2022-11-03T11:31:22.556Z,14.07
2022-11-03T11:36:25.396Z,13.50
2022-11-03T11:46:47.468Z,15.23
2022-11-03T11:51:49.171Z,14.50
2022-11-03T11:56:51.022Z,14.35
2022-11-03T12:01:57.256Z,14.23
2022-11-03T12:06:59.474Z,14.93
2022-11-03T12:12:07.180Z,14.90
2022-11-03T12:17:15.927Z,14.25
2022-11-03T12:22:23.939Z,13.20
2022-11-03T12:27:25.666Z,16.02
2022-11-03T12:32:35.545Z,15.13
2022-11-03T12:37:37.596Z,13.95
2022-11-03T12:42:39.563Z,14.70
2022-11-03T12:47:41.461Z,14.33
2022-11-03T12:52:43.140Z,14.63
2022-11-03T12:57:45.849Z,11.88
2022-11-03T13:07:49.686Z,14.40
2022-11-03T13:12:51.427Z,15.20
2022-11-03T13:18:12.262Z,14.63
2022-11-03T13:23:17.468Z,13.45
2022-11-03T13:28:22.040Z,14.52
2022-11-03T13:33:23.953Z,14.02
2022-11-03T13:38:25.652Z,14.18
2022-11-03T13:43:28.441Z,13.85
2022-11-03T13:59:29.204Z,14.30
2022-11-03T14:04:46.983Z,15.23
2022-11-03T14:09:48.781Z,14.93
2022-11-03T14:14:50.554Z,14.75
2022-11-03T14:19:55.575Z,14.03
2022-11-03T14:25:01.369Z,13.90
2022-11-03T14:30:04.222Z,14.95
2022-11-03T14:35:06.265Z,15.30
2022-11-03T14:40:28.564Z,15.57
2022-11-03T14:45:30.295Z,14.30
2022-11-03T14:50:32.160Z,14.93
2022-11-03T14:55:33.808Z,13.20
2022-11-03T15:00:35.517Z,13.45
2022-11-03T15:05:46.134Z,13.85
2022-11-03T15:10:48.136Z,12.63
2022-11-03T15:15:49.855Z,17.23
2022-11-03T15:20:51.476Z,15.95
2022-11-03T15:25:53.166Z,15.95
2022-11-03T15:30:54.820Z,12.95
2022-11-03T15:35:56.670Z,14.05
2022-11-03T15:41:15.462Z,16.87
2022-11-03T15:46:18.392Z,17.55
2022-11-03T15:51:20.285Z,17.25
2022-11-03T15:56:21.911Z,18.45
2022-11-03T16:01:23.902Z,17.45
2022-11-03T16:06:46.480Z,18.95
2022-11-03T16:11:47.559Z,19.67
2022-11-03T16:16:49.221Z,21.15
2022-11-03T16:21:51.625Z,21.35
2022-11-03T16:26:53.352Z,18.10
2022-11-03T16:31:55.010Z,19.60
2022-11-03T16:36:56.801Z,21.17
2022-11-03T16:41:58.849Z,21.03
2022-11-03T16:47:01.524Z,23.80
2022-11-03T16:52:03.406Z,19.58
2022-11-03T16:57:05.680Z,17.60
2022-11-03T17:02:10.853Z,18.37
2022-11-03T17:07:15.311Z,17.27
2022-11-03T17:12:17.070Z,16.63
2022-11-03T17:17:18.731Z,16.42
2022-11-03T17:22:22.198Z,15.90
2022-11-03T17:27:27.873Z,15.25
2022-11-03T17:32:36.815Z,14.65
2022-11-03T17:37:38.497Z,14.90
2022-11-03T17:42:40.299Z,13.15
2022-11-03T17:47:42.813Z,13.30
2022-11-03T17:52:46.421Z,12.65
2022-11-03T17:57:48.828Z,13.32
2022-11-03T18:02:51.414Z,13.73
2022-11-03T18:07:54.816Z,15.27
2022-11-03T18:13:18.297Z,14.88
2022-11-03T18:18:34.562Z,15.65
2022-11-03T18:23:36.253Z,16.25
2022-11-03T18:28:37.904Z,16.83
2022-11-03T18:33:39.611Z,16.85
2022-11-03T18:38:44.279Z,17.08
2022-11-03T18:43:45.989Z,19.70
2022-11-03T18:48:47.623Z,18.95
2022-11-03T18:53:49.297Z,19.27
2022-11-03T18:58:53.560Z,16.88
2022-11-03T19:03:56.563Z,16.50
2022-11-03T19:08:59.937Z,16.25
2022-11-03T19:14:01.736Z,18.05
2022-11-03T19:19:03.583Z,19.25
2022-11-03T19:24:05.486Z,15.15
2022-11-03T19:29:12.444Z,16.53
2022-11-03T19:34:20.864Z,19.38
2022-11-03T19:39:26.899Z,13.40
2022-11-03T19:44:28.850Z,13.02
2022-11-03T19:49:30.702Z,15.38
2022-11-03T19:54:32.379Z,16.73
2022-11-03T19:59:34.118Z,16.98
2022-11-03T20:04:35.860Z,19.73
2022-11-03T20:09:38.025Z,19.75
2022-11-03T20:14:39.685Z,21.23
2022-11-03T20:19:41.387Z,21.88
2022-11-03T20:24:45.320Z,18.90
2022-11-03T20:29:48.650Z,19.13
2022-11-03T20:34:50.537Z,19.52
2022-11-03T20:39:52.458Z,19.45
2022-11-03T20:44:54.665Z,16.80
2022-11-03T20:49:56.606Z,17.15
2022-11-03T20:54:58.822Z,17.70
2022-11-03T21:00:00.505Z,16.48
2022-11-03T21:05:02.249Z,13.82
2022-11-03T21:10:04.087Z,16.50
2022-11-03T21:15:36.331Z,15.50
2022-11-03T21:20:38.413Z,16.88
2022-11-03T21:25:40.294Z,15.30
2022-11-03T21:30:42.105Z,15.70
2022-11-03T21:35:45.675Z,13.37
2022-11-03T21:40:55.241Z,15.90
2022-11-03T21:46:11.919Z,17.15
2022-11-03T21:51:13.611Z,14.52
2022-11-03T21:56:15.930Z,12.55
2022-11-03T22:01:17.827Z,15.05
2022-11-03T22:06:19.963Z,12.80
2022-11-03T22:11:21.791Z,16.95
2022-11-03T22:16:36.676Z,19.98
2022-11-03T22:21:56.888Z,16.63
2022-11-03T22:27:00.486Z,19.13
2022-11-03T22:32:02.544Z,18.50
2022-11-03T22:37:04.413Z,19.83
2022-11-03T22:42:24.602Z,24.30
2022-11-03T22:47:26.709Z,25.35
2022-11-03T22:52:28.350Z,24.70
2022-11-03T22:57:30.037Z,25.38
2022-11-03T23:02:32.044Z,22.00
2022-11-03T23:07:41.272Z,25.10
2022-11-03T23:12:43.280Z,23.92
2022-11-03T23:18:03.299Z,21.95
2022-11-03T23:23:05.280Z,21.73
2022-11-03T23:28:07.122Z,24.80
2022-11-03T23:33:09.036Z,24.95
2022-11-03T23:38:11.293Z,24.88
2022-11-03T23:43:12.957Z,23.85
2022-11-03T23:48:33.229Z,24.75
2022-11-03T23:53:35.037Z,22.02
2022-11-03T23:58:36.799Z,23.10
